Saint-Basile, Canada
Current Conditions -  °F | °C
As of 10:00 AM on Friday 19 Dec 2014 (Local Time) from CYOY Reporting Station
Clear Clear  
Wind Chill: 23°   Ceiling: Unl
Heat Index: 23°   Visibility: 9mi
Dew Point: 16°   Wind: 2mph
Humidity: 74%   Direction: 280°W
Pressure: 29.97"   Gusts: NA
Location:  46.75°N, 71.82°W
Report Text: CYOY 191500Z AUTO 28002KT 9SM CLR M05/M09 A2997 RMK SLP161
Loading
Personal Weather Stations






























Interactive Weather Map New forecast layout! Learn more

10-Day Weather Forecast

Advertisements
Track Severe Weather on mobile